Time;durP1;ratioP1;P1;durP2;ratioP2;P2;SDS_P1;SDS_P2;PMS_P1;PMS_P2;Temp;Humidity;BMP_temperature;BMP_pressure;BME280_temperature;BME280_humidity;BME280_pressure;Samples;Min_cycle;Max_cycle;Signal;HPM_P1;HPM_P2
2024/03/31 00:03:44;;;;;;;29.73;20.70;;;;;5.10;99305.00;;;;10381473;28;20206;-85
2024/03/31 00:08:45;;;;;;;24.03;18.07;;;;;5.10;99307.00;;;;10376307;28;20218;-85
2024/03/31 00:13:46;;;;;;;23.73;16.73;;;;;5.00;99299.00;;;;10363850;28;20225;-83
2024/03/31 00:18:47;;;;;;;21.37;16.27;;;;;4.90;99294.00;;;;10370812;28;20222;-83
2024/03/31 00:23:48;;;;;;;17.03;13.93;;;;;4.90;99289.00;;;;10387608;28;20615;-76
2024/03/31 00:28:49;;;;;;;20.97;15.57;;;;;4.80;99283.00;;;;10371832;28;20218;-76
2024/03/31 00:33:50;;;;;;;19.67;15.63;;;;;4.80;99298.00;;;;10361053;28;20257;-75
2024/03/31 00:38:51;;;;;;;17.87;13.73;;;;;4.80;99307.00;;;;10390055;28;20227;-76
2024/03/31 00:43:51;;;;;;;19.53;15.37;;;;;4.80;99319.00;;;;10383109;28;20218;-75
2024/03/31 00:48:52;;;;;;;19.53;15.73;;;;;4.80;99297.00;;;;10361861;28;20566;-76
2024/03/31 00:53:53;;;;;;;21.60;16.37;;;;;4.90;99314.00;;;;10381115;28;20218;-78
2024/03/31 00:58:56;;;;;;;22.23;17.07;;;;;4.90;99310.00;;;;10355742;28;20215;-75
2024/03/31 01:03:57;;;;;;;25.33;19.30;;;;;4.90;99315.00;;;;10362150;28;20283;-75
2024/03/31 01:08:58;;;;;;;27.57;19.17;;;;;5.10;99309.00;;;;10376036;28;20222;-77
2024/03/31 01:14:00;;;;;;;29.80;21.67;;;;;5.30;99305.00;;;;10368239;28;20245;-76
2024/03/31 01:19:01;;;;;;;38.00;23.90;;;;;5.60;99309.00;;;;10358986;28;20760;-75
2024/03/31 01:24:02;;;;;;;39.77;25.83;;;;;5.80;99297.00;;;;10346687;28;20280;-76
2024/03/31 01:29:03;;;;;;;39.00;26.17;;;;;6.00;99291.00;;;;10364340;28;20305;-75
2024/03/31 01:34:04;;;;;;;37.80;25.40;;;;;6.20;99264.00;;;;10366076;28;20214;-78
2024/03/31 01:39:05;;;;;;;38.27;25.60;;;;;6.20;99253.00;;;;10370838;28;20221;-78
2024/03/31 01:44:07;;;;;;;36.77;25.53;;;;;6.30;99236.00;;;;10352080;28;20222;-78
2024/03/31 01:49:08;;;;;;;37.47;25.57;;;;;6.30;99241.00;;;;10363744;28;20222;-77
2024/03/31 01:54:08;;;;;;;42.13;26.40;;;;;6.30;99224.00;;;;10358158;28;20229;-77
2024/03/31 01:59:10;;;;;;;39.00;25.60;;;;;6.40;99227.00;;;;10381941;28;20230;-79
2024/03/31 02:04:11;;;;;;;38.93;24.37;;;;;6.40;99228.00;;;;10361854;28;20275;-78
2024/03/31 02:09:12;;;;;;;38.10;26.07;;;;;6.50;99239.00;;;;10378675;28;20282;-77
2024/03/31 02:14:13;;;;;;;42.20;25.37;;;;;6.50;99229.00;;;;10380467;28;20316;-79
2024/03/31 02:19:14;;;;;;;38.50;25.07;;;;;6.60;99225.00;;;;10387302;28;20231;-77
2024/03/31 02:24:16;;;;;;;38.03;25.93;;;;;6.60;99238.00;;;;10361821;28;20218;-78
2024/03/31 02:29:18;;;;;;;36.83;25.33;;;;;6.70;99217.00;;;;10363888;28;20275;-78
2024/03/31 02:34:19;;;;;;;38.40;25.67;;;;;6.80;99206.00;;;;10359006;28;20757;-77
2024/03/31 02:39:21;;;;;;;39.73;26.80;;;;;6.80;99206.00;;;;10396524;28;20241;-77
2024/03/31 02:44:22;;;;;;;41.90;26.80;;;;;6.80;99197.00;;;;10355694;28;20218;-76
2024/03/31 02:49:25;;;;;;;37.13;25.33;;;;;6.90;99193.00;;;;10390492;28;20218;-77
2024/03/31 02:54:26;;;;;;;38.00;26.23;;;;;6.90;99197.00;;;;10404577;28;20226;-75
2024/03/31 02:59:27;;;;;;;37.17;26.37;;;;;7.00;99201.00;;;;10393796;28;20279;-76
2024/03/31 03:04:28;;;;;;;44.07;27.63;;;;;7.00;99198.00;;;;10363539;28;20222;-76
2024/03/31 03:09:31;;;;;;;41.13;28.40;;;;;7.10;99189.00;;;;10357070;28;20225;-77
2024/03/31 03:14:32;;;;;;;39.07;27.60;;;;;7.10;99174.00;;;;10375599;28;20305;-76
2024/03/31 03:19:33;;;;;;;42.13;27.30;;;;;7.10;99175.00;;;;10378971;28;20230;-75
2024/03/31 03:24:34;;;;;;;38.47;27.37;;;;;7.10;99177.00;;;;10368512;28;20230;-75
2024/03/31 03:29:35;;;;;;;40.80;27.57;;;;;7.10;99171.00;;;;10380144;28;20229;-76
2024/03/31 03:34:36;;;;;;;42.83;27.13;;;;;7.20;99160.00;;;;10370922;28;20310;-77
2024/03/31 03:39:39;;;;;;;37.93;26.10;;;;;7.20;99150.00;;;;10392868;28;20953;-75
2024/03/31 03:44:40;;;;;;;40.90;26.63;;;;;7.20;99150.00;;;;10375266;28;20748;-75
2024/03/31 03:49:42;;;;;;;40.40;26.43;;;;;7.30;99157.00;;;;10358944;28;20218;-81
2024/03/31 03:54:43;;;;;;;37.27;25.53;;;;;7.30;99154.00;;;;10417203;28;20320;-77
2024/03/31 03:59:43;;;;;;;40.90;26.13;;;;;7.30;99155.00;;;;10382225;28;20578;-77
2024/03/31 04:04:45;;;;;;;40.60;27.37;;;;;7.30;99152.00;;;;10364939;28;20590;-77
2024/03/31 04:09:46;;;;;;;41.50;25.77;;;;;7.40;99151.00;;;;10373495;28;20226;-77
2024/03/31 04:14:47;;;;;;;42.43;27.10;;;;;7.50;99155.00;;;;10352746;28;20633;-77
2024/03/31 04:19:48;;;;;;;35.20;22.83;;;;;7.50;99136.00;;;;10369878;28;20234;-78
2024/03/31 04:24:49;;;;;;;36.73;25.33;;;;;7.60;99144.00;;;;10367976;28;20223;-77
2024/03/31 04:29:50;;;;;;;37.73;23.60;;;;;7.60;99130.00;;;;10375349;28;20218;-77
2024/03/31 04:34:51;;;;;;;32.90;22.00;;;;;7.70;99122.00;;;;10389923;28;20268;-77
2024/03/31 04:39:54;;;;;;;38.23;22.43;;;;;7.80;99121.00;;;;10355961;28;20269;-77
2024/03/31 04:44:56;;;;;;;35.67;21.40;;;;;7.80;99119.00;;;;10348405;28;20218;-79
2024/03/31 04:49:57;;;;;;;35.53;20.10;;;;;7.80;99105.00;;;;10360339;28;20606;-78
2024/03/31 04:54:58;;;;;;;30.87;19.57;;;;;7.80;99102.00;;;;10370605;28;20315;-78
2024/03/31 04:59:59;;;;;;;30.33;19.07;;;;;7.80;99100.00;;;;10398892;28;20217;-75
2024/03/31 05:05:01;;;;;;;32.37;19.67;;;;;7.80;99107.00;;;;10384758;28;20267;-76
2024/03/31 05:10:03;;;;;;;29.10;17.90;;;;;7.80;99099.00;;;;10360717;28;20226;-76
2024/03/31 05:15:05;;;;;;;25.40;17.23;;;;;7.80;99097.00;;;;10370946;28;20309;-74
2024/03/31 05:20:07;;;;;;;25.47;16.80;;;;;7.80;99096.00;;;;10367126;28;20222;-76
2024/03/31 05:25:09;;;;;;;26.33;17.23;;;;;7.90;99102.00;;;;10373179;28;20297;-75
2024/03/31 05:30:10;;;;;;;24.77;15.40;;;;;7.90;99104.00;;;;10378602;28;20573;-76
2024/03/31 05:35:12;;;;;;;22.53;14.57;;;;;7.90;99090.00;;;;10362427;28;20261;-76
2024/03/31 05:40:13;;;;;;;23.10;14.87;;;;;7.90;99087.00;;;;10369598;28;20213;-76
2024/03/31 05:45:14;;;;;;;22.23;14.53;;;;;7.90;99096.00;;;;10352351;28;20228;-75
2024/03/31 05:50:15;;;;;;;24.57;13.77;;;;;7.90;99095.00;;;;10384048;28;20225;-77
2024/03/31 05:55:17;;;;;;;18.77;13.30;;;;;7.90;99090.00;;;;10374478;28;20226;-74
2024/03/31 06:00:18;;;;;;;23.47;13.17;;;;;7.80;99089.00;;;;10373122;28;20856;-76
2024/03/31 06:05:20;;;;;;;20.53;13.13;;;;;7.80;99080.00;;;;10390379;28;20280;-75
2024/03/31 06:10:21;;;;;;;19.30;11.93;;;;;7.80;99079.00;;;;10369077;28;20649;-76
2024/03/31 06:15:22;;;;;;;21.10;11.93;;;;;7.90;99078.00;;;;10391851;28;20737;-75
2024/03/31 06:20:25;;;;;;;27.43;15.07;;;;;8.30;99071.00;;;;10366421;28;20722;-76
2024/03/31 06:25:27;;;;;;;25.33;13.47;;;;;8.60;99080.00;;;;10374417;28;20288;-75
2024/03/31 06:30:28;;;;;;;17.00;12.83;;;;;8.90;99085.00;;;;10379706;28;20238;-76
2024/03/31 06:35:31;;;;;;;21.33;11.40;;;;;9.00;99082.00;;;;10391999;28;20316;-77
2024/03/31 06:40:33;;;;;;;16.77;11.03;;;;;8.90;99085.00;;;;10396600;28;20221;-76
2024/03/31 06:45:35;;;;;;;16.10;10.60;;;;;8.90;99073.00;;;;10370043;28;20695;-76
2024/03/31 06:50:36;;;;;;;15.10;9.93;;;;;8.80;99081.00;;;;10396648;28;20226;-76
2024/03/31 06:55:42;;;;;;;14.17;9.03;;;;;8.60;99086.00;;;;10381402;28;20257;-77
2024/03/31 07:00:43;;;;;;;15.07;10.47;;;;;8.70;99073.00;;;;10384881;28;20238;-77
2024/03/31 07:05:44;;;;;;;16.30;9.77;;;;;8.80;99080.00;;;;10367685;28;20267;-77
2024/03/31 07:10:46;;;;;;;22.43;9.83;;;;;9.10;99074.00;;;;10406392;28;20282;-76
2024/03/31 07:15:47;;;;;;;13.60;9.17;;;;;9.50;99066.00;;;;10381904;28;20938;-76
2024/03/31 07:20:48;;;;;;;14.10;9.27;;;;;9.70;99067.00;;;;10368892;28;20218;-80
2024/03/31 07:25:49;;;;;;;16.70;8.13;;;;;9.70;99075.00;;;;10367745;28;20267;-80
2024/03/31 07:30:50;;;;;;;15.80;8.97;;;;;9.80;99063.00;;;;10392237;28;20808;-79
2024/03/31 07:35:52;;;;;;;16.03;8.60;;;;;10.40;99058.00;;;;10380511;28;20230;-80
2024/03/31 07:40:53;;;;;;;16.87;8.17;;;;;11.30;99060.00;;;;10391734;28;20215;-80
2024/03/31 07:45:54;;;;;;;11.97;7.37;;;;;11.80;99074.00;;;;10393769;28;20889;-79
2024/03/31 07:50:55;;;;;;;9.87;5.23;;;;;12.40;99063.00;;;;10384566;28;21001;-79
2024/03/31 07:55:58;;;;;;;10.03;3.83;;;;;12.60;99050.00;;;;10383507;28;20275;-79
2024/03/31 08:01:00;;;;;;;13.97;4.27;;;;;12.50;99064.00;;;;10395428;28;20207;-79
2024/03/31 08:06:01;;;;;;;13.00;3.87;;;;;12.50;99059.00;;;;10355646;28;20582;-78
2024/03/31 08:11:02;;;;;;;8.00;3.17;;;;;13.00;99054.00;;;;10387225;28;20219;-78
2024/03/31 08:16:04;;;;;;;10.93;3.80;;;;;13.00;99058.00;;;;10384773;28;20256;-79
2024/03/31 08:21:05;;;;;;;7.37;2.70;;;;;12.80;99052.00;;;;10369124;28;20743;-79
2024/03/31 08:26:05;;;;;;;7.03;2.90;;;;;12.60;99047.00;;;;10385866;28;20245;-79
2024/03/31 08:31:06;;;;;;;9.77;2.13;;;;;12.80;99038.00;;;;10399984;28;20310;-75
2024/03/31 08:36:07;;;;;;;8.57;2.77;;;;;13.50;99034.00;;;;10383366;28;20246;-75
2024/03/31 08:41:09;;;;;;;7.78;2.83;;;;;14.20;99039.00;;;;10374937;28;20214;-75
2024/03/31 08:46:11;;;;;;;5.03;2.08;;;;;15.20;99040.00;;;;10386716;28;20222;-75
2024/03/31 08:51:12;;;;;;;5.32;2.03;;;;;16.00;99038.00;;;;10367849;28;20232;-76
2024/03/31 08:56:13;;;;;;;10.45;2.30;;;;;16.60;99049.00;;;;10391032;28;20236;-75
2024/03/31 09:01:16;;;;;;;8.55;2.00;;;;;16.90;99050.00;;;;10381252;28;20229;-76
2024/03/31 09:06:17;;;;;;;10.52;2.17;;;;;17.00;99052.00;;;;10360970;28;20206;-75
2024/03/31 09:11:18;;;;;;;7.65;1.80;;;;;17.30;99062.00;;;;10362423;28;20217;-75
2024/03/31 09:16:21;;;;;;;7.10;2.15;;;;;17.20;99049.00;;;;10369138;28;20222;-77
2024/03/31 09:21:22;;;;;;;8.40;1.70;;;;;17.00;99049.00;;;;10359149;28;20234;-76
2024/03/31 09:26:24;;;;;;;5.90;1.70;;;;;17.60;99037.00;;;;10389125;28;20228;-75
2024/03/31 09:31:25;;;;;;;2.95;1.73;;;;;18.10;99048.00;;;;10361309;28;20278;-75
2024/03/31 09:36:27;;;;;;;7.05;1.80;;;;;18.20;99030.00;;;;10374561;28;20217;-75
2024/03/31 09:41:28;;;;;;;3.40;1.52;;;;;19.20;99049.00;;;;10376468;28;20228;-81
2024/03/31 09:46:30;;;;;;;4.70;1.38;;;;;19.30;99051.00;;;;10360078;28;20578;-83
2024/03/31 09:51:36;;;;;;;5.80;1.38;;;;;19.10;99047.00;;;;10364367;28;20219;-81
2024/03/31 09:56:44;;;;;;;7.60;1.60;;;;;18.60;99057.00;;;;10368116;28;20225;-82
2024/03/31 10:01:46;;;;;;;4.97;1.42;;;;;18.10;99072.00;;;;10377739;28;20296;-82
2024/03/31 10:06:48;;;;;;;4.88;1.10;;;;;18.30;99078.00;;;;10358644;28;20257;-80
2024/03/31 10:11:50;;;;;;;5.47;1.30;;;;;18.10;99074.00;;;;10391355;28;20222;-82
2024/03/31 10:16:52;;;;;;;7.45;1.80;;;;;17.10;99056.00;;;;10353929;28;20317;-81
2024/03/31 10:21:54;;;;;;;5.75;1.92;;;;;17.20;99056.00;;;;10383632;28;20233;-83
2024/03/31 10:26:56;;;;;;;4.30;1.30;;;;;17.00;99056.00;;;;10383309;28;20681;-81
2024/03/31 10:31:58;;;;;;;4.07;1.05;;;;;16.30;99053.00;;;;10403041;28;20261;-82
2024/03/31 10:36:59;;;;;;;6.20;1.65;;;;;16.70;99054.00;;;;10371850;28;20317;-83
2024/03/31 10:42:00;;;;;;;5.55;1.45;;;;;17.10;99058.00;;;;10365491;28;20210;-82
2024/03/31 10:47:01;;;;;;;6.93;1.42;;;;;17.00;99056.00;;;;10364060;28;20238;-81
2024/03/31 10:52:02;;;;;;;4.30;1.17;;;;;17.00;99053.00;;;;10365640;28;20227;-78
2024/03/31 10:57:09;;;;;;;3.97;1.00;;;;;17.20;99049.00;;;;10379429;28;20226;-78
2024/03/31 11:02:14;;;;;;;6.03;1.25;;;;;17.00;99033.00;;;;10400371;28;20585;-78
2024/03/31 11:07:16;;;;;;;5.53;0.88;;;;;17.30;99038.00;;;;10358263;28;20223;-79
2024/03/31 11:12:17;;;;;;;5.85;0.88;;;;;17.00;99031.00;;;;10366608;28;20226;-80
2024/03/31 11:17:18;;;;;;;3.17;0.82;;;;;17.30;99030.00;;;;10372163;28;20214;-78
2024/03/31 11:22:21;;;;;;;3.30;0.93;;;;;17.20;99026.00;;;;10369574;28;20210;-79
2024/03/31 11:27:22;;;;;;;5.00;1.10;;;;;16.60;99031.00;;;;10356145;28;20240;-79
2024/03/31 11:32:24;;;;;;;3.17;0.90;;;;;16.60;99027.00;;;;10374749;28;20241;-79
2024/03/31 11:37:25;;;;;;;2.42;0.70;;;;;16.30;99039.00;;;;10371687;28;20320;-79
2024/03/31 11:42:27;;;;;;;2.80;0.90;;;;;15.90;99028.00;;;;10387877;28;20828;-78
2024/03/31 11:47:28;;;;;;;1.50;0.60;;;;;15.40;99031.00;;;;10357791;28;20923;-79
2024/03/31 11:52:31;;;;;;;1.17;0.50;;;;;15.50;99035.00;;;;10369474;28;20223;-78
2024/03/31 11:57:32;;;;;;;1.98;0.65;;;;;15.90;99018.00;;;;10383555;28;20217;-79
2024/03/31 12:02:33;;;;;;;1.67;0.60;;;;;16.00;99026.00;;;;10382636;28;20221;-77
2024/03/31 12:07:35;;;;;;;4.05;0.65;;;;;15.70;99027.00;;;;10394118;28;20582;-77
2024/03/31 12:12:36;;;;;;;2.53;1.00;;;;;15.70;99015.00;;;;10374850;28;20230;-77
2024/03/31 12:17:37;;;;;;;2.10;0.90;;;;;15.70;99011.00;;;;10365761;28;20308;-78
2024/03/31 12:22:41;;;;;;;3.17;1.00;;;;;15.30;99010.00;;;;10385910;28;20975;-78
2024/03/31 12:27:42;;;;;;;4.50;1.00;;;;;15.40;99005.00;;;;10380245;28;20230;-78
2024/03/31 12:32:44;;;;;;;2.38;0.80;;;;;15.60;98997.00;;;;10365477;28;20234;-78
2024/03/31 12:37:45;;;;;;;3.72;0.80;;;;;15.60;98992.00;;;;10355287;28;20280;-78
2024/03/31 12:42:46;;;;;;;3.35;0.80;;;;;15.60;98991.00;;;;10360885;28;20649;-77
2024/03/31 12:47:52;;;;;;;0.88;0.55;;;;;16.30;98988.00;;;;10364084;28;20730;-76
2024/03/31 12:53:06;;;;;;;1.60;0.65;;;;;16.20;98982.00;;;;10351929;28;20225;-76
2024/03/31 12:58:08;;;;;;;1.50;0.70;;;;;16.60;98967.00;;;;10350077;28;20223;-76
2024/03/31 13:03:10;;;;;;;3.80;1.20;;;;;16.80;98971.00;;;;10359321;28;20559;-75
2024/03/31 13:08:11;;;;;;;1.80;0.95;;;;;16.50;98959.00;;;;10368256;28;20221;-78
2024/03/31 13:13:14;;;;;;;1.52;0.80;;;;;16.10;98949.00;;;;10377986;28;20317;-77
2024/03/31 13:18:15;;;;;;;3.00;0.95;;;;;15.60;98948.00;;;;10373744;28;20229;-76
2024/03/31 13:23:16;;;;;;;1.17;0.68;;;;;15.10;98955.00;;;;10357501;28;20287;-76
2024/03/31 13:28:17;;;;;;;2.58;0.85;;;;;15.10;98959.00;;;;10392012;28;20218;-76
2024/03/31 13:33:18;;;;;;;1.60;0.80;;;;;14.60;98962.00;;;;10355684;28;20239;-76
2024/03/31 13:38:19;;;;;;;1.73;0.90;;;;;14.50;98961.00;;;;10374212;28;20222;-76
2024/03/31 13:43:20;;;;;;;3.38;1.15;;;;;14.10;98957.00;;;;10379079;28;20230;-77
2024/03/31 13:48:21;;;;;;;4.57;1.58;;;;;13.90;98951.00;;;;10376555;28;21331;-77
2024/03/31 13:53:22;;;;;;;1.67;0.80;;;;;13.70;98948.00;;;;10360632;28;20221;-78
2024/03/31 13:58:23;;;;;;;4.72;1.80;;;;;13.70;98936.00;;;;10380043;28;20252;-77
2024/03/31 14:03:24;;;;;;;4.38;1.48;;;;;13.70;98928.00;;;;10367583;28;20265;-78
2024/03/31 14:08:25;;;;;;;3.40;1.02;;;;;13.60;98922.00;;;;10384483;28;20214;-78
2024/03/31 14:13:27;;;;;;;6.55;1.17;;;;;13.50;98916.00;;;;10387671;28;20218;-77
2024/03/31 14:18:28;;;;;;;2.42;1.00;;;;;13.70;98912.00;;;;10392277;28;20604;-80
2024/03/31 14:23:29;;;;;;;1.75;0.90;;;;;13.70;98901.00;;;;10383705;28;20222;-77
2024/03/31 14:28:31;;;;;;;2.33;1.10;;;;;13.80;98903.00;;;;10406707;28;20222;-77
2024/03/31 14:33:32;;;;;;;6.88;1.55;;;;;13.70;98886.00;;;;10380539;28;20245;-77
2024/03/31 14:38:33;;;;;;;5.28;1.52;;;;;13.80;98876.00;;;;10370286;28;20230;-77
2024/03/31 14:43:34;;;;;;;4.03;1.45;;;;;13.80;98869.00;;;;10383952;28;20225;-76
2024/03/31 14:48:35;;;;;;;3.20;1.53;;;;;14.00;98848.00;;;;10388168;28;20241;-75
2024/03/31 14:53:36;;;;;;;4.53;1.58;;;;;14.10;98836.00;;;;10394230;28;20240;-76
2024/03/31 14:58:37;;;;;;;8.23;1.60;;;;;14.00;98834.00;;;;10381330;28;20240;-74
2024/03/31 15:03:38;;;;;;;4.93;1.65;;;;;14.30;98818.00;;;;10379989;28;20222;-78
2024/03/31 15:08:39;;;;;;;5.88;1.58;;;;;14.90;98804.00;;;;10380315;28;20689;-75
2024/03/31 15:13:40;;;;;;;5.78;1.80;;;;;15.60;98795.00;;;;10375421;28;21024;-75
2024/03/31 15:18:41;;;;;;;6.70;1.98;;;;;15.70;98799.00;;;;10391972;28;20222;-76
2024/03/31 15:23:42;;;;;;;6.13;1.52;;;;;15.30;98802.00;;;;10390500;28;20230;-79
2024/03/31 15:28:42;;;;;;;5.25;1.15;;;;;14.70;98780.00;;;;10390053;28;20218;-75
2024/03/31 15:33:46;;;;;;;5.00;1.70;;;;;14.40;98793.00;;;;10356997;28;20222;-83
2024/03/31 15:38:47;;;;;;;5.97;1.88;;;;;14.70;98780.00;;;;10382504;28;20226;-84
2024/03/31 15:43:48;;;;;;;8.25;2.05;;;;;15.30;98783.00;;;;10372001;28;20221;-84
2024/03/31 15:48:49;;;;;;;7.93;2.05;;;;;15.40;98793.00;;;;10388484;28;20222;-83
2024/03/31 15:53:50;;;;;;;7.18;2.10;;;;;15.50;98794.00;;;;10379847;28;20218;-82
2024/03/31 15:58:51;;;;;;;8.15;2.10;;;;;15.10;98797.00;;;;10375792;28;20231;-83
2024/03/31 16:03:52;;;;;;;6.97;1.60;;;;;14.70;98784.00;;;;10384925;28;20214;-82
2024/03/31 16:08:53;;;;;;;6.78;1.95;;;;;14.30;98776.00;;;;10392018;28;20226;-82
2024/03/31 16:13:55;;;;;;;5.93;1.88;;;;;14.10;98761.00;;;;10387065;28;20214;-82
2024/03/31 16:18:56;;;;;;;9.18;1.80;;;;;14.00;98753.00;;;;10391473;28;20268;-82
2024/03/31 16:23:57;;;;;;;3.63;1.50;;;;;13.70;98752.00;;;;10365693;28;20229;-83
2024/03/31 16:28:58;;;;;;;4.65;1.77;;;;;13.50;98750.00;;;;10384066;28;20226;-82
2024/03/31 16:33:59;;;;;;;8.60;1.77;;;;;13.60;98745.00;;;;10361686;28;20253;-86
2024/03/31 16:39:00;;;;;;;5.22;1.95;;;;;13.70;98731.00;;;;10352647;28;20297;-84
2024/03/31 16:44:01;;;;;;;7.47;2.28;;;;;13.80;98736.00;;;;10364464;28;20248;-79
2024/03/31 16:49:02;;;;;;;6.88;1.77;;;;;13.60;98731.00;;;;10362307;28;20235;-82
2024/03/31 16:54:03;;;;;;;8.38;2.22;;;;;13.40;98730.00;;;;10361388;28;20264;-80
2024/03/31 16:59:04;;;;;;;5.55;1.60;;;;;13.20;98728.00;;;;10375595;28;20575;-80
2024/03/31 17:04:05;;;;;;;6.57;1.80;;;;;13.00;98735.00;;;;10364538;28;20686;-80
2024/03/31 17:09:07;;;;;;;7.30;2.30;;;;;12.90;98721.00;;;;10379198;28;20215;-79
2024/03/31 17:14:08;;;;;;;5.00;1.50;;;;;12.70;98724.00;;;;10369973;28;20218;-79
2024/03/31 17:19:09;;;;;;;3.57;1.90;;;;;12.70;98722.00;;;;10375943;28;20234;-79
2024/03/31 17:24:12;;;;;;;6.13;1.90;;;;;12.60;98715.00;;;;10358398;28;20613;-79
2024/03/31 17:29:13;;;;;;;4.43;2.10;;;;;12.60;98724.00;;;;10376396;28;20215;-80
2024/03/31 17:34:14;;;;;;;5.33;2.23;;;;;12.60;98718.00;;;;10364149;28;20229;-80
2024/03/31 17:39:23;;;;;;;5.90;1.83;;;;;12.60;98727.00;;;;10367463;28;20245;-80
2024/03/31 17:44:24;;;;;;;5.57;2.47;;;;;12.50;98731.00;;;;10360784;28;20229;-79
2024/03/31 17:49:25;;;;;;;7.13;3.03;;;;;12.50;98738.00;;;;10364616;28;20589;-79
2024/03/31 17:54:26;;;;;;;6.17;2.20;;;;;12.50;98734.00;;;;10382780;28;20219;-80
2024/03/31 17:59:27;;;;;;;6.60;2.07;;;;;12.40;98747.00;;;;10382484;28;20215;-79
2024/03/31 18:04:28;;;;;;;12.93;3.50;;;;;12.40;98733.00;;;;10399893;28;20226;-80
2024/03/31 18:09:29;;;;;;;12.50;2.83;;;;;12.40;98753.00;;;;10397285;28;20686;-79
2024/03/31 18:14:30;;;;;;;5.27;2.70;;;;;12.30;98747.00;;;;10379185;28;20224;-80
2024/03/31 18:19:31;;;;;;;9.90;3.70;;;;;12.40;98769.00;;;;10379465;28;20210;-79
2024/03/31 18:24:34;;;;;;;7.27;3.23;;;;;12.30;98766.00;;;;10387310;28;20677;-79
2024/03/31 18:29:36;;;;;;;9.00;3.33;;;;;12.30;98777.00;;;;10372714;28;20226;-79
2024/03/31 18:34:37;;;;;;;7.47;3.20;;;;;12.30;98779.00;;;;10370484;28;20287;-79
2024/03/31 18:39:38;;;;;;;10.67;3.67;;;;;12.30;98775.00;;;;10382441;28;20247;-80
2024/03/31 18:44:42;;;;;;;10.03;3.37;;;;;12.10;98782.00;;;;10382031;28;20217;-79
2024/03/31 18:49:43;;;;;;;9.13;3.47;;;;;12.00;98782.00;;;;10360822;28;20225;-79
2024/03/31 18:54:46;;;;;;;11.53;3.37;;;;;12.00;98787.00;;;;10374247;28;20288;-79
2024/03/31 18:59:47;;;;;;;4.97;2.97;;;;;11.90;98794.00;;;;10387891;28;20686;-79
2024/03/31 19:04:52;;;;;;;9.50;3.43;;;;;11.80;98797.00;;;;10375312;28;20222;-77
2024/03/31 19:09:56;;;;;;;6.07;3.23;;;;;11.70;98802.00;;;;10378946;28;20218;-78
2024/03/31 19:14:56;;;;;;;8.27;3.23;;;;;11.60;98811.00;;;;10370095;28;20234;-79
2024/03/31 19:19:58;;;;;;;12.70;3.53;;;;;11.60;98815.00;;;;10380335;28;20829;-79
2024/03/31 19:24:59;;;;;;;6.70;3.60;;;;;11.70;98787.00;;;;10376808;28;20223;-79
2024/03/31 19:30:04;;;;;;;7.17;3.07;;;;;11.80;98838.00;;;;10382524;28;20217;-78
2024/03/31 19:35:06;;;;;;;7.33;2.60;;;;;11.60;98831.00;;;;10369658;28;20831;-78
2024/03/31 19:40:07;;;;;;;2.97;1.60;;;;;11.50;98829.00;;;;10377067;28;20223;-76
2024/03/31 19:45:08;;;;;;;1.67;1.27;;;;;11.40;98838.00;;;;10371983;28;20710;-78
2024/03/31 19:50:09;;;;;;;5.10;1.70;;;;;11.40;98843.00;;;;10390860;28;20221;-77
2024/03/31 19:55:10;;;;;;;4.43;0.93;;;;;11.40;98838.00;;;;10385009;28;20303;-79
2024/03/31 20:00:11;;;;;;;2.47;1.40;;;;;11.40;98829.00;;;;10387839;28;20819;-78
2024/03/31 20:05:12;;;;;;;4.03;1.20;;;;;11.30;98830.00;;;;10376686;28;20230;-77
2024/03/31 20:10:14;;;;;;;2.53;1.23;;;;;11.20;98830.00;;;;10373990;28;20313;-80
2024/03/31 20:15:15;;;;;;;2.83;1.10;;;;;11.00;98823.00;;;;10384287;28;20221;-80
2024/03/31 20:20:16;;;;;;;2.67;1.47;;;;;11.00;98815.00;;;;10364939;28;20250;-81
2024/03/31 20:25:17;;;;;;;2.63;1.30;;;;;10.90;98812.00;;;;10379131;28;21019;-80
2024/03/31 20:30:18;;;;;;;4.53;1.80;;;;;10.90;98807.00;;;;10346654;28;20324;-81
2024/03/31 20:35:19;;;;;;;3.77;1.50;;;;;10.80;98802.00;;;;10382470;28;20231;-82
2024/03/31 20:40:19;;;;;;;3.57;1.50;;;;;10.80;98807.00;;;;10372607;28;21121;-80
2024/03/31 20:45:21;;;;;;;2.30;1.60;;;;;10.70;98803.00;;;;10374344;28;22482;-79
2024/03/31 20:50:21;;;;;;;3.37;1.70;;;;;10.50;98798.00;;;;10386099;28;20218;-79
2024/03/31 20:55:22;;;;;;;2.33;1.47;;;;;10.40;98788.00;;;;10355646;28;20792;-80
2024/03/31 21:00:23;;;;;;;3.13;1.90;;;;;10.40;98798.00;;;;10376059;28;20234;-80
2024/03/31 21:05:24;;;;;;;2.80;1.50;;;;;10.30;98791.00;;;;10381387;28;20729;-79
2024/03/31 21:10:25;;;;;;;4.00;1.63;;;;;10.30;98782.00;;;;10375218;28;20228;-80
2024/03/31 21:15:34;;;;;;;3.97;1.60;;;;;10.30;98803.00;;;;10392179;28;20230;-79
2024/03/31 21:20:35;;;;;;;3.80;1.40;;;;;10.30;98801.00;;;;10374109;28;20228;-79
2024/03/31 21:25:36;;;;;;;3.73;1.60;;;;;10.20;98792.00;;;;10366266;28;20213;-80
2024/03/31 21:30:37;;;;;;;2.93;1.27;;;;;10.20;98784.00;;;;10364058;28;20218;-79
2024/03/31 21:35:38;;;;;;;2.93;1.40;;;;;10.20;98781.00;;;;10377876;28;20866;-79
2024/03/31 21:40:40;;;;;;;3.87;1.40;;;;;10.20;98775.00;;;;10386076;28;20225;-80
2024/03/31 21:45:41;;;;;;;4.83;1.83;;;;;10.10;98775.00;;;;10357573;28;20217;-80
2024/03/31 21:50:53;;;;;;;2.97;1.60;;;;;10.10;98779.00;;;;10362586;28;20214;-79
2024/03/31 21:55:55;;;;;;;5.20;1.80;;;;;10.10;98770.00;;;;10388531;28;20229;-79
2024/03/31 22:01:07;;;;;;;3.17;1.77;;;;;10.10;98776.00;;;;10360145;28;20222;-78
2024/03/31 22:06:15;;;;;;;3.10;1.37;;;;;10.10;98787.00;;;;10365213;28;20231;-79
2024/03/31 22:11:16;;;;;;;3.13;1.77;;;;;10.00;98794.00;;;;10394539;28;20249;-79
2024/03/31 22:16:17;;;;;;;4.70;1.93;;;;;10.00;98827.00;;;;10376102;28;20229;-79
2024/03/31 22:21:19;;;;;;;3.90;1.50;;;;;10.00;98805.00;;;;10368530;28;20675;-79
2024/03/31 22:26:20;;;;;;;2.63;1.77;;;;;9.90;98825.00;;;;10387867;28;20222;-79
2024/03/31 22:31:21;;;;;;;3.50;1.60;;;;;9.80;98806.00;;;;10369869;28;20251;-78
2024/03/31 22:36:22;;;;;;;2.33;1.30;;;;;9.70;98808.00;;;;10369251;28;20269;-79
2024/03/31 22:41:23;;;;;;;2.33;1.70;;;;;9.70;98799.00;;;;10382160;28;20249;-78
2024/03/31 22:46:24;;;;;;;4.57;1.63;;;;;9.60;98806.00;;;;10367701;28;20225;-78
2024/03/31 22:51:25;;;;;;;3.97;1.70;;;;;9.60;98793.00;;;;10399009;28;20245;-78
2024/03/31 22:56:25;;;;;;;2.10;1.50;;;;;9.50;98797.00;;;;10371912;28;20289;-78
2024/03/31 23:01:26;;;;;;;4.33;1.43;;;;;9.50;98810.00;;;;10372594;28;20222;-77
2024/03/31 23:06:27;;;;;;;3.37;1.60;;;;;9.60;98801.00;;;;10389342;28;20222;-78
2024/03/31 23:11:28;;;;;;;3.53;1.93;;;;;9.70;98808.00;;;;10378201;28;20210;-79
2024/03/31 23:16:29;;;;;;;4.73;2.17;;;;;9.70;98795.00;;;;10348527;28;20225;-79
2024/03/31 23:21:32;;;;;;;3.63;2.03;;;;;9.70;98797.00;;;;10369412;28;20222;-78
2024/03/31 23:26:35;;;;;;;3.33;1.80;;;;;9.70;98787.00;;;;10369930;28;20215;-79
2024/03/31 23:31:36;;;;;;;3.20;1.87;;;;;9.60;98782.00;;;;10393038;28;20223;-78
2024/03/31 23:36:37;;;;;;;2.90;1.70;;;;;9.60;98783.00;;;;10383085;28;20218;-77
2024/03/31 23:41:38;;;;;;;2.63;1.63;;;;;9.50;98774.00;;;;10368296;28;20218;-77
2024/03/31 23:46:39;;;;;;;2.70;1.47;;;;;9.40;98787.00;;;;10388952;28;20246;-76
2024/03/31 23:51:40;;;;;;;5.50;1.60;;;;;9.40;98759.00;;;;10386669;28;20236;-75
2024/03/31 23:56:41;;;;;;;2.93;1.57;;;;;9.30;98763.00;;;;10355170;28;20697;-76
